Time;durP1;ratioP1;P1;durP2;ratioP2;P2;SDS_P1;SDS_P2;PMS_P1;PMS_P2;Temp;Humidity;BMP_temperature;BMP_pressure;BME280_temperature;BME280_humidity;BME280_pressure;Samples;Min_cycle;Max_cycle;Signal;HPM_P1;HPM_P2
2021/12/28 00:01:15;;;;;;;21.60;9.75;;;;;;;2.20;87.73;98820.06;5045776;28;20392;-71
2021/12/28 00:03:43;;;;;;;17.88;9.10;;;;;;;2.22;87.46;98818.22;5041660;28;20024;-72
2021/12/28 00:06:10;;;;;;;18.50;8.57;;;;;;;2.21;87.80;98812.22;5046960;28;20029;-71
2021/12/28 00:08:36;;;;;;;16.60;8.23;;;;;;;2.20;87.59;98804.56;5037153;28;20045;-69
2021/12/28 00:11:04;;;;;;;16.67;8.30;;;;;;;2.18;88.18;98792.53;5046568;28;20033;-70
2021/12/28 00:13:30;;;;;;;18.73;8.93;;;;;;;2.22;87.59;98794.94;5057757;28;20032;-69
2021/12/28 00:18:23;;;;;;;18.10;9.13;;;;;;;2.20;87.60;98805.41;5048960;28;20055;-69
2021/12/28 00:20:52;;;;;;;20.30;9.18;;;;;;;2.17;87.93;98805.56;5032884;28;20029;-71
2021/12/28 00:23:21;;;;;;;16.48;8.20;;;;;;;2.15;88.15;98799.63;5046790;28;20381;-70
2021/12/28 00:25:48;;;;;;;16.67;9.18;;;;;;;2.16;88.33;98794.41;5045651;28;20523;-67
2021/12/28 00:28:14;;;;;;;17.50;8.77;;;;;;;2.17;88.25;98796.06;5045684;28;20044;-72
2021/12/28 00:30:40;;;;;;;18.35;8.90;;;;;;;2.20;88.77;98794.22;5047735;28;20018;-71
2021/12/28 00:33:06;;;;;;;19.17;9.15;;;;;;;2.20;88.20;98802.81;5059229;28;20286;-70
2021/12/28 00:35:34;;;;;;;21.38;9.88;;;;;;;2.24;88.46;98796.53;5058523;28;20097;-71
2021/12/28 00:38:02;;;;;;;18.40;9.50;;;;;;;2.27;88.39;98803.31;5052726;28;20120;-70
2021/12/28 00:40:28;;;;;;;23.15;10.25;;;;;;;2.31;88.42;98800.44;5050120;28;20267;-69
2021/12/28 00:42:53;;;;;;;19.88;9.60;;;;;;;2.33;88.38;98798.59;5046053;28;20525;-71
2021/12/28 00:45:19;;;;;;;20.35;9.10;;;;;;;2.36;88.39;98785.47;5060804;28;20056;-70
2021/12/28 00:47:45;;;;;;;19.05;8.48;;;;;;;2.45;88.22;98786.72;5057469;28;20494;-71
2021/12/28 00:50:14;;;;;;;21.15;9.88;;;;;;;2.41;88.40;98780.91;5070739;28;20086;-69
2021/12/28 00:52:39;;;;;;;18.48;9.20;;;;;;;2.45;88.42;98786.72;5056283;28;20124;-72
2021/12/28 00:55:06;;;;;;;19.35;9.25;;;;;;;2.40;88.34;98781.78;5043005;28;20142;-70
2021/12/28 00:57:32;;;;;;;17.20;9.13;;;;;;;2.46;87.88;98787.56;5046446;28;20075;-72
2021/12/28 00:59:57;;;;;;;17.95;9.38;;;;;;;2.46;88.46;98783.22;5047814;28;20432;-71
2021/12/28 01:02:23;;;;;;;25.27;10.95;;;;;;;2.46;88.55;98785.78;5040345;28;20033;-70
2021/12/28 01:04:49;;;;;;;26.20;11.13;;;;;;;2.47;88.40;98776.28;5047047;28;20056;-70
2021/12/28 01:07:14;;;;;;;25.17;11.02;;;;;;;2.48;88.47;98786.53;5048646;28;20040;-69
2021/12/28 01:09:42;;;;;;;25.00;11.45;;;;;;;2.50;88.52;98782.09;5048626;28;20037;-72
2021/12/28 01:12:08;;;;;;;24.83;10.68;;;;;;;2.50;88.67;98776.09;5045077;28;20448;-68
2021/12/28 01:14:33;;;;;;;27.42;10.90;;;;;;;2.53;89.07;98786.28;5053187;28;20061;-71
2021/12/28 01:16:59;;;;;;;35.03;13.60;;;;;;;2.54;89.36;98775.00;5049318;28;20052;-69
2021/12/28 01:19:26;;;;;;;27.70;11.75;;;;;;;2.55;88.62;98774.91;5049202;28;20151;-68
2021/12/28 01:21:52;;;;;;;27.17;11.70;;;;;;;2.53;89.59;98766.41;5048819;28;20150;-71
2021/12/28 01:24:18;;;;;;;31.15;12.23;;;;;;;2.60;89.68;98769.47;5048700;28;20063;-71
2021/12/28 01:26:45;;;;;;;31.05;12.60;;;;;;;2.60;89.80;98764.31;5047707;28;20406;-71
2021/12/28 01:29:10;;;;;;;26.20;12.52;;;;;;;2.64;89.41;98768.38;5046889;28;20029;-70
2021/12/28 01:31:37;;;;;;;33.75;14.70;;;;;;;2.65;89.61;98768.28;5048806;28;20029;-72
2021/12/28 01:34:07;;;;;;;34.80;13.70;;;;;;;2.67;89.89;98763.84;5048706;28;20135;-74
2021/12/28 01:36:32;;;;;;;35.35;13.88;;;;;;;2.71;89.93;98755.88;5046992;28;20116;-71
2021/12/28 01:38:58;;;;;;;28.55;13.35;;;;;;;2.72;89.77;98752.41;5055684;22;20137;-88
2021/12/28 01:41:23;;;;;;;28.27;13.85;;;;;;;2.71;90.04;98746.38;5043319;28;20063;-88
2021/12/28 01:44:05;;;;;;;27.13;12.73;;;;;;;2.75;90.13;98742.69;5052144;28;20048;-88
2021/12/28 01:46:32;;;;;;;29.25;12.80;;;;;;;2.78;90.17;98752.88;5056552;28;20043;-87
2021/12/28 01:48:58;;;;;;;31.65;11.82;;;;;;;2.79;89.69;98751.94;5063743;28;20051;-88
2021/12/28 01:51:24;;;;;;;27.63;13.13;;;;;;;2.81;89.62;98737.13;5062408;28;20422;-87
2021/12/28 01:53:53;;;;;;;28.38;13.43;;;;;;;2.83;89.20;98737.06;5041339;28;20082;-88
2021/12/28 01:56:25;;;;;;;25.17;11.93;;;;;;;2.84;89.29;98734.34;5040623;28;20111;-88
2021/12/28 01:58:51;;;;;;;28.25;13.27;;;;;;;2.84;89.50;98729.19;5042115;28;20075;-88
2021/12/28 02:01:17;;;;;;;24.75;12.45;;;;;;;2.91;89.58;98735.66;5045270;28;20033;-87
2021/12/28 02:03:43;;;;;;;29.60;12.27;;;;;;;2.91;89.40;98727.88;5042348;28;20040;-89
2021/12/28 02:06:10;;;;;;;28.08;11.93;;;;;;;2.96;88.88;98726.78;5037402;28;20040;-88
2021/12/28 02:08:38;;;;;;;27.50;12.45;;;;;;;2.95;89.37;98725.13;5047987;28;20064;-88
2021/12/28 02:11:05;;;;;;;29.50;13.13;;;;;;;2.95;89.47;98732.88;5039366;28;20037;-88
2021/12/28 02:13:30;;;;;;;25.00;12.98;;;;;;;2.97;89.42;98736.22;5047534;28;20065;-89
2021/12/28 02:15:59;;;;;;;32.22;14.07;;;;;;;2.99;89.13;98726.59;5040996;28;20086;-88
2021/12/28 02:18:26;;;;;;;28.52;13.10;;;;;;;3.04;88.94;98715.03;5051284;28;20044;-88
2021/12/28 02:20:53;;;;;;;36.15;13.60;;;;;;;3.04;88.82;98709.88;5039153;28;20040;-88
2021/12/28 02:23:19;;;;;;;30.00;13.63;;;;;;;3.06;89.16;98718.34;5052572;28;20051;-87
2021/12/28 02:25:45;;;;;;;29.52;13.65;;;;;;;3.11;88.86;98712.88;5052646;28;20102;-88
2021/12/28 02:28:13;;;;;;;30.40;12.35;;;;;;;3.12;88.70;98711.97;5050720;28;20032;-86
2021/12/28 02:30:42;;;;;;;25.52;12.18;;;;;;;3.13;88.55;98704.09;5044137;28;20097;-88
2021/12/28 02:33:09;;;;;;;30.30;12.65;;;;;;;3.12;88.67;98679.16;5035659;28;20025;-88
2021/12/28 02:35:35;;;;;;;24.38;12.43;;;;;;;3.09;88.89;98681.91;5030294;28;20040;-89
2021/12/28 02:38:01;;;;;;;22.80;10.88;;;;;;;3.01;88.59;98668.63;5031643;28;20113;-87
2021/12/28 02:40:30;;;;;;;22.27;11.45;;;;;;;3.02;88.56;98674.63;5030049;28;20037;-87
2021/12/28 02:42:58;;;;;;;26.00;12.18;;;;;;;2.97;89.45;98666.31;5027755;28;20034;-87
2021/12/28 02:45:37;;;;;;;23.13;10.55;;;;;;;2.87;89.52;98669.47;5031372;28;20025;-85
2021/12/28 02:48:04;;;;;;;27.30;12.50;;;;;;;2.88;89.97;98667.72;5028586;28;20044;-88
2021/12/28 02:50:41;;;;;;;26.55;11.45;;;;;;;2.84;90.15;98661.06;5031999;28;20037;-88
2021/12/28 02:53:10;;;;;;;28.00;11.88;;;;;;;2.80;90.30;98675.13;5017206;28;20464;-87
2021/12/28 02:55:43;;;;;;;26.23;13.05;;;;;;;2.81;90.08;98677.59;5041067;28;20034;-89
2021/12/28 02:58:22;;;;;;;24.50;11.02;;;;;;;2.84;89.90;98674.00;5020533;28;20029;-88
2021/12/28 03:01:09;;;;;;;22.55;11.68;;;;;;;2.82;90.11;98675.88;5024167;28;20104;-87
2021/12/28 03:03:36;;;;;;;24.70;11.30;;;;;;;2.80;90.48;98675.13;5033879;28;20421;-88
2021/12/28 03:06:04;;;;;;;20.17;10.18;;;;;;;2.82;90.60;98671.53;5031204;28;20028;-89
2021/12/28 03:08:35;;;;;;;21.57;10.70;;;;;;;2.85;90.57;98667.91;5031106;28;20057;-88
2021/12/28 03:11:01;;;;;;;22.80;10.27;;;;;;;2.87;90.10;98676.41;5020182;28;20066;-88
2021/12/28 03:13:33;;;;;;;22.50;11.43;;;;;;;2.92;90.08;98682.13;5025753;28;20888;-88
2021/12/28 03:16:17;;;;;;;22.35;10.70;;;;;;;2.95;89.89;98684.53;5030779;28;20199;-88
2021/12/28 03:18:45;;;;;;;24.17;10.77;;;;;;;2.98;89.92;98679.16;5031302;28;20029;-88
2021/12/28 03:21:15;;;;;;;20.25;9.73;;;;;;;2.99;90.08;98669.63;5025130;28;20288;-89
2021/12/28 03:23:55;;;;;;;20.50;9.60;;;;;;;3.01;89.56;98671.22;5029389;28;20355;-88
2021/12/28 03:26:20;;;;;;;22.92;10.13;;;;;;;3.00;89.92;98661.75;5029277;28;20040;-87
2021/12/28 03:28:46;;;;;;;23.02;10.38;;;;;;;3.02;90.01;98648.75;5027648;28;20112;-87
2021/12/28 03:31:15;;;;;;;25.55;11.02;;;;;;;3.01;90.36;98658.28;5028765;28;20033;-86
2021/12/28 03:33:43;;;;;;;16.67;8.95;;;;;;;3.01;90.52;98652.25;5027528;28;20373;-87
2021/12/28 03:36:10;;;;;;;19.73;10.43;;;;;;;3.01;90.22;98639.31;5030221;28;20029;-88
2021/12/28 03:38:38;;;;;;;20.25;9.20;;;;;;;2.97;90.59;98641.28;5035528;28;20030;-87
2021/12/28 03:41:08;;;;;;;16.88;9.20;;;;;;;3.01;90.65;98640.16;5014514;28;20033;-89
2021/12/28 03:43:40;;;;;;;18.63;9.13;;;;;;;3.00;90.78;98635.88;5033262;28;20334;-88
2021/12/28 03:46:07;;;;;;;18.42;9.50;;;;;;;3.06;90.49;98637.25;5032710;28;20053;-89
2021/12/28 03:48:35;;;;;;;14.98;7.90;;;;;;;3.07;90.51;98637.16;5030085;28;20437;-89
2021/12/28 03:51:01;;;;;;;14.95;8.07;;;;;;;3.10;90.68;98639.56;5030841;28;20041;-88
2021/12/28 03:53:27;;;;;;;18.30;7.65;;;;;;;3.10;90.90;98636.97;5021050;28;20628;-88
2021/12/28 03:56:07;;;;;;;15.98;8.07;;;;;;;3.14;90.77;98637.59;5031931;28;20038;-88
2021/12/28 03:59:08;;;;;;;24.67;9.07;;;;;;;3.15;90.36;98634.94;5037225;28;20096;-89
2021/12/28 04:01:33;;;;;;;18.60;8.82;;;;;;;3.15;90.73;98628.91;5035150;28;20041;-88
2021/12/28 04:03:59;;;;;;;19.23;9.07;;;;;;;3.19;90.65;98626.94;5039431;28;20033;-87
2021/12/28 04:06:25;;;;;;;18.15;8.60;;;;;;;3.23;90.29;98638.81;5033192;28;20073;-87
2021/12/28 04:08:51;;;;;;;18.60;8.50;;;;;;;3.22;90.42;98639.72;5029406;28;20034;-87
2021/12/28 04:13:48;;;;;;;17.65;7.85;;;;;;;3.20;90.70;98634.63;5028360;28;20034;-88
2021/12/28 04:16:14;;;;;;;22.13;9.38;;;;;;;3.18;90.76;98628.72;5038616;28;20093;-87
2021/12/28 04:18:40;;;;;;;17.77;8.10;;;;;;;3.18;90.78;98627.88;5028337;28;20029;-89
2021/12/28 04:21:08;;;;;;;24.13;9.10;;;;;;;3.17;91.03;98628.81;5031406;28;20147;-87
2021/12/28 04:23:34;;;;;;;17.67;8.80;;;;;;;3.14;90.93;98630.66;5030673;28;20045;-88
2021/12/28 04:26:00;;;;;;;16.70;8.20;;;;;;;3.15;91.02;98634.94;5022916;28;20118;-87
2021/12/28 04:28:25;;;;;;;19.45;9.15;;;;;;;3.14;91.01;98630.66;5031367;28;20033;-87
2021/12/28 04:30:51;;;;;;;21.27;9.85;;;;;;;3.13;91.16;98623.00;5032531;28;20326;-87
2021/12/28 04:33:17;;;;;;;20.77;9.25;;;;;;;3.19;90.86;98629.53;5032898;28;20476;-88
2021/12/28 04:35:42;;;;;;;18.58;9.20;;;;;;;3.18;91.26;98633.06;5031150;28;20041;-87
2021/12/28 04:38:10;;;;;;;21.02;9.40;;;;;;;3.20;91.05;98631.22;4994899;28;1098210;-88
2021/12/28 04:40:36;;;;;;;25.50;11.45;;;;;;;3.20;91.08;98626.03;5033842;28;20182;-88
2021/12/28 04:43:01;;;;;;;22.02;10.68;;;;;;;3.23;90.81;98620.66;5031986;28;20037;-88
2021/12/28 04:45:27;;;;;;;24.10;11.23;;;;;;;3.20;90.96;98619.09;5030429;28;20112;-88
2021/12/28 04:47:53;;;;;;;23.98;10.88;;;;;;;3.23;90.45;98618.91;5029275;28;20113;-89
2021/12/28 04:50:18;;;;;;;26.05;12.45;;;;;;;3.30;90.43;98617.59;5034846;28;20037;-89
2021/12/28 04:52:47;;;;;;;24.95;11.55;;;;;;;3.29;90.32;98613.31;5031183;28;20598;-88
2021/12/28 04:55:18;;;;;;;22.13;10.90;;;;;;;3.33;89.91;98619.97;5034223;28;20053;-88
2021/12/28 04:57:45;;;;;;;22.10;10.88;;;;;;;3.34;90.18;98616.47;5034112;28;20323;-87
2021/12/28 05:00:19;;;;;;;27.40;11.90;;;;;;;3.36;90.02;98616.34;5033842;28;20058;-87
2021/12/28 05:02:45;;;;;;;30.42;12.18;;;;;;;3.38;89.72;98614.50;5027952;28;20041;-88
2021/12/28 05:05:12;;;;;;;29.90;11.93;;;;;;;3.38;89.73;98604.97;5026734;28;20026;-88
2021/12/28 05:07:38;;;;;;;35.50;14.63;;;;;;;3.40;89.57;98607.44;5022154;28;20045;-88
2021/12/28 05:10:04;;;;;;;27.25;12.93;;;;;;;3.44;88.92;98608.09;5031269;28;20033;-88
2021/12/28 05:12:30;;;;;;;26.63;12.18;;;;;;;3.47;89.22;98603.53;5030849;28;20440;-86
2021/12/28 05:14:58;;;;;;;26.15;13.10;;;;;;;3.47;88.95;98598.34;5032317;28;20061;-88
2021/12/28 05:17:24;;;;;;;31.80;13.80;;;;;;;3.49;89.08;98600.84;5036108;28;20036;-89
2021/12/28 05:19:50;;;;;;;28.42;11.95;;;;;;;3.47;88.79;98589.75;5036881;28;20037;-88
2021/12/28 05:22:15;;;;;;;27.50;12.27;;;;;;;3.47;89.20;98582.81;5035778;28;20060;-86
2021/12/28 05:24:43;;;;;;;24.50;11.30;;;;;;;3.47;89.34;98576.81;5032206;28;20036;-87
2021/12/28 05:27:11;;;;;;;26.43;12.20;;;;;;;3.50;89.05;98574.00;5031782;28;20373;-88
2021/12/28 05:29:40;;;;;;;24.33;12.23;;;;;;;3.48;88.85;98566.31;5023985;28;20133;-88
2021/12/28 05:32:06;;;;;;;25.25;11.73;;;;;;;3.49;89.04;98575.78;5022185;28;20041;-87
2021/12/28 05:34:31;;;;;;;25.73;11.82;;;;;;;3.49;89.03;98569.78;5034029;28;20025;-88
2021/12/28 05:36:57;;;;;;;28.08;11.50;;;;;;;3.46;89.14;98562.19;5023128;28;20029;-87
2021/12/28 05:39:26;;;;;;;30.10;12.05;;;;;;;3.44;89.75;98564.03;5018151;28;20120;-88
2021/12/28 05:41:51;;;;;;;23.63;11.77;;;;;;;3.46;89.22;98554.41;5007005;28;20088;-89
2021/12/28 05:44:18;;;;;;;26.90;12.73;;;;;;;3.47;89.58;98562.09;5031354;28;20045;-88
2021/12/28 05:46:44;;;;;;;21.88;11.68;;;;;;;3.45;89.22;98558.78;5031170;28;20033;-88
2021/12/28 05:49:10;;;;;;;24.85;11.50;;;;;;;3.44;89.23;98551.91;5031293;28;20025;-89
2021/12/28 05:51:36;;;;;;;22.77;10.35;;;;;;;3.45;89.14;98548.41;5028617;28;20113;-88
2021/12/28 05:54:01;;;;;;;27.17;13.05;;;;;;;3.46;89.22;98542.28;5031701;28;20021;-88
2021/12/28 05:56:27;;;;;;;29.60;12.20;;;;;;;3.46;89.08;98546.66;5024766;28;20481;-88
2021/12/28 05:58:52;;;;;;;26.80;12.57;;;;;;;3.45;88.98;98556.19;5025766;28;20071;-88
2021/12/28 06:01:18;;;;;;;24.27;12.05;;;;;;;3.47;89.09;98561.25;5031988;28;20144;-88
2021/12/28 06:03:43;;;;;;;29.02;13.00;;;;;;;3.48;89.18;98560.31;5031177;28;20033;-89
2021/12/28 06:06:09;;;;;;;27.60;12.68;;;;;;;3.51;88.76;98554.94;5022213;28;20059;-88
2021/12/28 06:08:34;;;;;;;27.25;13.07;;;;;;;3.46;88.72;98542.28;5019914;28;20073;-88
2021/12/28 06:11:02;;;;;;;27.25;13.63;;;;;;;3.41;88.88;98549.53;5032369;28;20033;-87
2021/12/28 06:13:28;;;;;;;27.50;13.88;;;;;;;3.44;88.89;98549.31;5030751;28;20046;-88
2021/12/28 06:15:54;;;;;;;30.48;13.05;;;;;;;3.47;89.05;98556.91;5030161;28;20025;-87
2021/12/28 06:18:19;;;;;;;34.60;13.45;;;;;;;3.45;88.98;98550.16;5023668;28;20472;-88
2021/12/28 06:20:45;;;;;;;38.55;14.85;;;;;;;3.45;89.03;98542.38;5027825;28;20041;-89
2021/12/28 06:23:11;;;;;;;31.83;14.48;;;;;;;3.48;88.78;98542.19;5034740;28;20118;-89
2021/12/28 06:25:38;;;;;;;29.77;13.80;;;;;;;3.49;88.70;98546.44;5028149;28;20030;-87
2021/12/28 06:28:06;;;;;;;29.27;13.90;;;;;;;3.48;88.69;98542.19;5024162;28;20099;-87
2021/12/28 06:30:31;;;;;;;26.45;13.40;;;;;;;3.50;88.39;98524.78;5029579;28;20047;-88
2021/12/28 06:33:00;;;;;;;33.58;13.05;;;;;;;3.45;88.75;98526.84;5030734;28;20508;-88
2021/12/28 06:35:26;;;;;;;26.55;13.23;;;;;;;3.38;88.74;98529.03;5030884;28;20044;-88
2021/12/28 06:37:52;;;;;;;32.38;14.55;;;;;;;3.42;88.58;98533.06;5032050;28;20053;-87
2021/12/28 06:40:20;;;;;;;31.17;14.65;;;;;;;3.41;88.75;98528.78;5029922;28;20481;-88
2021/12/28 06:42:45;;;;;;;34.85;15.63;;;;;;;3.40;88.61;98530.56;5024674;28;20112;-88
2021/12/28 06:45:11;;;;;;;33.40;15.77;;;;;;;3.39;88.67;98531.50;5032280;28;20041;-87
2021/12/28 06:47:37;;;;;;;33.13;15.38;;;;;;;3.38;88.62;98522.06;5030248;28;20061;-87
2021/12/28 06:50:04;;;;;;;30.48;14.98;;;;;;;3.41;88.46;98526.22;5030262;28;20106;-88
2021/12/28 06:52:30;;;;;;;31.33;14.23;;;;;;;3.42;88.34;98530.47;5030995;28;20434;-89
2021/12/28 06:54:55;;;;;;;37.08;15.25;;;;;;;3.42;88.36;98535.66;5030677;28;20041;-88
2021/12/28 06:57:22;;;;;;;40.08;15.93;;;;;;;3.34;88.74;98533.56;5032205;28;20033;-88
2021/12/28 06:59:48;;;;;;;39.92;16.67;;;;;;;3.30;88.48;98521.75;5025472;28;20033;-88
2021/12/28 07:02:14;;;;;;;39.05;15.80;;;;;;;3.34;88.82;98522.38;5030238;28;20413;-88
2021/12/28 07:04:42;;;;;;;36.72;15.00;;;;;;;3.34;88.68;98517.22;5030959;28;20052;-88
2021/12/28 07:07:08;;;;;;;40.15;16.08;;;;;;;3.35;88.23;98511.91;5033123;28;20104;-88
2021/12/28 07:09:34;;;;;;;37.17;16.02;;;;;;;3.32;88.72;98500.94;5031423;28;20041;-88
2021/12/28 07:12:00;;;;;;;31.92;15.02;;;;;;;3.30;88.54;98497.59;5029434;28;20044;-88
2021/12/28 07:14:28;;;;;;;38.17;15.48;;;;;;;3.34;88.50;98512.84;5024636;28;20026;-87
2021/12/28 07:16:54;;;;;;;37.47;15.88;;;;;;;3.32;88.48;98509.53;5030078;28;20074;-87
2021/12/28 07:19:19;;;;;;;43.67;17.80;;;;;;;3.35;88.58;98516.28;5030459;28;20030;-87
2021/12/28 07:21:45;;;;;;;46.85;17.13;;;;;;;3.35;88.50;98530.03;5028081;28;20367;-88
2021/12/28 07:24:18;;;;;;;33.33;15.82;;;;;;;3.34;88.76;98532.75;5027791;28;20075;-87
2021/12/28 07:26:44;;;;;;;33.28;15.27;;;;;;;3.32;88.84;98513.88;5029029;28;20045;-87
2021/12/28 07:29:11;;;;;;;36.05;16.58;;;;;;;3.36;88.85;98530.88;5031538;28;20074;-87
2021/12/28 07:31:36;;;;;;;33.67;14.90;;;;;;;3.44;89.37;98530.38;5029294;28;20034;-89
2021/12/28 07:34:02;;;;;;;37.55;15.50;;;;;;;3.45;88.99;98522.50;5030941;28;20032;-87
2021/12/28 07:36:28;;;;;;;29.42;15.43;;;;;;;3.51;88.52;98529.03;5032224;28;20017;-87
2021/12/28 07:38:54;;;;;;;29.50;14.57;;;;;;;3.57;88.29;98526.03;5024928;28;20180;-88
2021/12/28 07:41:20;;;;;;;32.92;15.75;;;;;;;3.64;87.99;98527.28;5026067;28;20128;-86
2021/12/28 07:43:46;;;;;;;31.80;14.13;;;;;;;3.63;88.16;98531.66;5024571;28;20044;-88
2021/12/28 07:46:11;;;;;;;34.70;14.75;;;;;;;3.61;88.49;98522.31;5027060;28;20026;-86
2021/12/28 07:48:38;;;;;;;33.85;15.63;;;;;;;3.63;88.33;98538.56;5031641;28;20027;-88
2021/12/28 07:51:04;;;;;;;34.33;14.15;;;;;;;3.56;88.57;98530.41;5023070;28;20067;-87
2021/12/28 07:53:29;;;;;;;31.33;14.13;;;;;;;3.53;88.63;98524.59;5030079;28;20029;-87
2021/12/28 07:55:57;;;;;;;35.10;15.00;;;;;;;3.48;89.04;98524.03;5031219;28;20133;-86
2021/12/28 07:58:24;;;;;;;29.40;14.25;;;;;;;3.42;89.56;98527.88;5028183;28;20100;-87
2021/12/28 08:00:50;;;;;;;33.40;15.10;;;;;;;3.35;89.80;98522.28;5028890;28;20021;-86
2021/12/28 08:03:15;;;;;;;31.73;14.90;;;;;;;3.27;90.21;98516.78;5028856;28;20052;-86
2021/12/28 08:05:41;;;;;;;34.70;15.48;;;;;;;3.25;90.13;98521.22;5030444;28;20559;-87
2021/12/28 08:08:07;;;;;;;32.03;14.75;;;;;;;3.24;90.47;98518.72;5023821;28;20113;-87
2021/12/28 08:10:33;;;;;;;27.58;14.05;;;;;;;3.21;90.80;98518.94;5023072;28;20076;-88
2021/12/28 08:12:58;;;;;;;32.75;14.57;;;;;;;3.23;90.91;98523.09;5033221;28;20093;-87
2021/12/28 08:15:26;;;;;;;36.88;14.52;;;;;;;3.22;91.04;98513.63;5031417;28;20036;-87
2021/12/28 08:17:52;;;;;;;36.70;14.95;;;;;;;3.27;91.27;98521.13;5023862;28;20078;-88
2021/12/28 08:20:20;;;;;;;34.22;15.25;;;;;;;3.31;91.24;98518.22;5017596;28;20378;-87
2021/12/28 08:22:47;;;;;;;35.40;15.02;;;;;;;3.41;91.10;98510.66;5032069;28;20107;-89
2021/12/28 08:25:17;;;;;;;33.80;14.60;;;;;;;3.49;90.45;98500.66;5032563;28;20051;-90
2021/12/28 08:27:46;;;;;;;33.38;14.68;;;;;;;3.58;90.32;98502.59;5032956;28;20414;-87
2021/12/28 08:30:21;;;;;;;35.13;15.98;;;;;;;3.66;90.63;98496.06;5031846;28;20024;-90
2021/12/28 08:32:46;;;;;;;46.70;15.90;;;;;;;3.73;89.83;98492.13;5012879;28;20052;-88
2021/12/28 08:35:14;;;;;;;39.60;16.23;;;;;;;3.76;89.53;98492.75;5029434;28;20454;-89
2021/12/28 08:37:40;;;;;;;31.95;13.95;;;;;;;3.86;89.12;98485.19;5024590;28;20069;-87
2021/12/28 08:40:11;;;;;;;37.42;15.07;;;;;;;3.86;89.03;98485.19;5028601;28;20080;-87
2021/12/28 08:42:37;;;;;;;34.40;14.57;;;;;;;3.90;88.98;98488.41;5031191;28;20022;-87
2021/12/28 08:45:05;;;;;;;32.58;14.20;;;;;;;3.93;88.61;98478.66;5029735;28;20523;-87
2021/12/28 08:47:31;;;;;;;28.02;13.13;;;;;;;3.93;88.56;98476.06;5030979;28;20386;-88
2021/12/28 08:49:58;;;;;;;34.30;13.40;;;;;;;3.98;88.56;98473.97;5029920;28;20039;-88
2021/12/28 08:52:25;;;;;;;32.22;12.82;;;;;;;4.01;88.80;98460.81;5029391;28;20079;-87
2021/12/28 08:54:51;;;;;;;27.63;12.07;;;;;;;4.06;88.38;98457.88;5020201;28;20049;-86
2021/12/28 08:57:20;;;;;;;26.27;11.38;;;;;;;4.08;88.19;98464.63;5016193;28;20107;-89
2021/12/28 08:59:49;;;;;;;29.02;12.18;;;;;;;4.09;88.58;98453.31;5030300;28;20355;-87
2021/12/28 09:02:14;;;;;;;36.75;13.60;;;;;;;4.20;88.28;98460.34;5029181;28;20055;-86
2021/12/28 09:04:43;;;;;;;29.30;12.43;;;;;;;4.25;87.63;98455.66;5029760;28;20036;-87
2021/12/28 09:07:11;;;;;;;25.05;11.27;;;;;;;4.28;87.32;98460.63;5023098;28;20038;-86
2021/12/28 09:09:36;;;;;;;26.48;11.52;;;;;;;4.33;87.19;98458.53;5024350;28;20374;-86
2021/12/28 09:12:04;;;;;;;28.95;12.40;;;;;;;4.38;87.45;98453.03;5012250;28;20099;-84
2021/12/28 09:14:29;;;;;;;27.95;11.50;;;;;;;4.42;87.50;98446.69;5011959;28;20056;-86
2021/12/28 09:16:55;;;;;;;40.53;13.60;;;;;;;4.43;87.22;98450.09;5024079;28;20030;-84
2021/12/28 09:19:20;;;;;;;39.00;14.15;;;;;;;4.40;87.56;98438.16;5032262;28;20064;-85
2021/12/28 09:21:45;;;;;;;38.17;13.82;;;;;;;4.41;87.29;98444.19;5034382;28;20120;-85
2021/12/28 09:24:11;;;;;;;31.45;12.38;;;;;;;4.41;87.52;98446.78;5015190;28;20025;-85
2021/12/28 09:26:36;;;;;;;30.63;12.60;;;;;;;4.42;87.67;98440.66;5012567;28;20121;-85
2021/12/28 09:29:54;;;;;;;30.33;11.80;;;;;;;4.44;87.74;98447.38;5015514;28;20040;-87
2021/12/28 09:32:20;;;;;;;33.45;12.00;;;;;;;4.51;87.49;98438.22;5031070;28;20121;-85
2021/12/28 09:34:48;;;;;;;37.90;11.95;;;;;;;4.52;87.13;98445.06;5034285;28;20041;-87
2021/12/28 09:37:14;;;;;;;29.92;11.52;;;;;;;4.50;87.44;98440.94;5021617;28;20048;-84
2021/12/28 09:39:39;;;;;;;30.75;12.05;;;;;;;4.43;87.59;98443.13;5032703;28;20042;-85
2021/12/28 09:42:05;;;;;;;34.97;11.93;;;;;;;4.45;87.58;98445.63;5033999;28;20124;-86
2021/12/28 09:44:33;;;;;;;31.40;11.98;;;;;;;4.49;87.78;98437.53;5032398;28;20098;-84
2021/12/28 09:46:59;;;;;;;28.88;11.25;;;;;;;4.59;87.42;98446.28;5028563;28;20029;-87
2021/12/28 09:49:27;;;;;;;35.58;12.82;;;;;;;4.67;87.01;98442.31;5026383;28;20029;-85
2021/12/28 09:51:57;;;;;;;28.17;12.05;;;;;;;4.78;86.79;98451.00;5032277;28;21555;-84
2021/12/28 09:54:25;;;;;;;28.17;10.85;;;;;;;4.85;86.58;98446.16;5034521;28;20048;-85
2021/12/28 09:56:54;;;;;;;22.35;8.88;;;;;;;4.93;86.08;98450.78;5026798;28;20067;-86
2021/12/28 09:59:19;;;;;;;;;;;;;;;4.96;86.23;98451.41;5033906;28;20030;-85
2021/12/28 10:01:45;;;;;;;31.98;11.07;;;;;;;5.11;85.43;98449.44;5029829;28;19924;-85
2021/12/28 10:04:11;;;;;;;31.05;10.45;;;;;;;5.20;85.35;98443.56;5033269;28;20461;-85
2021/12/28 10:06:36;;;;;;;24.73;9.63;;;;;;;5.37;85.04;98449.25;5035373;28;20051;-85
2021/12/28 10:09:07;;;;;;;25.13;9.13;;;;;;;5.51;83.89;98446.44;5029972;28;20139;-85
2021/12/28 10:11:48;;;;;;;25.23;10.40;;;;;;;5.62;83.42;98450.84;5034029;28;20370;-84
2021/12/28 10:14:22;;;;;;;20.23;8.48;;;;;;;5.62;83.38;98443.88;5033236;28;20041;-84
2021/12/28 10:16:57;;;;;;;32.85;10.15;;;;;;;5.59;83.84;98444.09;5030741;28;20033;-85
2021/12/28 10:19:45;;;;;;;51.40;11.02;;;;;;;5.60;84.08;98448.38;5023913;28;20117;-87
2021/12/28 10:22:20;;;;;;;21.23;8.68;;;;;;;5.67;83.63;98453.91;5031638;28;20033;-84
2021/12/28 10:24:46;;;;;;;24.27;8.90;;;;;;;5.72;83.17;98447.41;5019902;28;20098;-85
2021/12/28 10:27:16;;;;;;;25.88;9.77;;;;;;;5.79;82.71;98456.41;5033121;28;20025;-84
2021/12/28 10:29:44;;;;;;;25.48;9.32;;;;;;;5.79;82.53;98446.00;5022583;28;20037;-85
2021/12/28 10:32:52;;;;;;;20.07;9.27;;;;;;;5.80;82.78;98436.44;5033371;28;20046;-88
2021/12/28 10:35:26;;;;;;;24.60;9.73;;;;;;;5.81;82.73;98443.28;4967681;28;20043;-88
2021/12/28 10:37:55;;;;;;;26.15;9.20;;;;;;;5.78;82.60;98457.38;4961313;28;20046;-86
2021/12/28 10:40:35;;;;;;;23.67;8.57;;;;;;;5.78;83.00;98449.56;4990860;28;20116;-84
2021/12/28 10:43:08;;;;;;;26.13;8.77;;;;;;;5.78;82.77;98448.72;4976203;28;20101;-86
2021/12/28 10:45:43;;;;;;;22.08;8.98;;;;;;;5.82;82.28;98442.31;4990377;28;20076;-86
2021/12/28 10:48:17;;;;;;;21.40;8.13;;;;;;;5.75;82.61;98441.16;4988859;28;20030;-85
2021/12/28 10:51:02;;;;;;;23.73;8.45;;;;;;;5.76;82.37;98437.63;4974424;28;20038;-88
2021/12/28 10:54:06;;;;;;;23.10;8.52;;;;;;;5.81;82.61;98432.88;4990287;28;20477;-86
2021/12/28 10:56:57;;;;;;;21.33;8.70;;;;;;;5.83;82.13;98425.78;4971910;28;20034;-86
2021/12/28 10:59:32;;;;;;;25.20;8.27;;;;;;;5.88;82.28;98428.84;4981143;28;20030;-86
2021/12/28 11:02:04;;;;;;;17.58;7.15;;;;;;;5.93;82.11;98428.53;4989599;28;20154;-86
2021/12/28 11:04:36;;;;;;;23.45;6.80;;;;;;;5.90;81.85;98416.56;4977290;28;20045;-86
2021/12/28 11:07:05;;;;;;;24.08;7.30;;;;;;;5.97;81.90;98409.13;4992392;28;20045;-86
2021/12/28 11:09:39;;;;;;;14.18;6.03;;;;;;;6.04;81.17;98413.75;4976295;28;20052;-85
2021/12/28 11:12:05;;;;;;;18.88;6.78;;;;;;;6.07;81.50;98407.47;5009583;28;20121;-85
2021/12/28 11:14:33;;;;;;;21.27;7.35;;;;;;;6.11;81.21;98398.47;5025872;28;20425;-85
2021/12/28 11:17:04;;;;;;;19.80;7.40;;;;;;;6.15;80.80;98399.03;5028919;28;20103;-88
2021/12/28 11:19:33;;;;;;;19.52;7.20;;;;;;;6.18;80.96;98391.00;5029436;28;20121;-84
2021/12/28 11:22:09;;;;;;;19.85;7.47;;;;;;;6.24;81.01;98382.72;5029440;28;20060;-85
2021/12/28 11:24:43;;;;;;;16.17;7.60;;;;;;;6.29;80.50;98370.16;5028730;28;20029;-85
2021/12/28 11:27:20;;;;;;;19.23;7.30;;;;;;;6.34;80.26;98355.00;5032215;28;20414;-85
2021/12/28 11:29:45;;;;;;;23.52;7.60;;;;;;;6.46;80.68;98355.78;5031095;28;20053;-88
2021/12/28 11:32:17;;;;;;;17.73;7.32;;;;;;;6.47;80.13;98350.44;5019653;28;20056;-86
2021/12/28 11:34:52;;;;;;;14.90;6.70;;;;;;;6.49;79.27;98351.16;5032788;28;20044;-87
2021/12/28 11:37:20;;;;;;;18.95;6.25;;;;;;;6.52;79.15;98330.06;5031195;28;20030;-87